sensor_id;sensor_type;location;lat;lon;timestamp;P1;durP1;ratioP1;P2;durP2;ratioP2
19599;SDS011;9947;57.722;12.012;2023-06-04T00:00:01;8.37;;;3.80;;
19599;SDS011;9947;57.722;12.012;2023-06-04T00:02:30;6.00;;;3.80;;
19599;SDS011;9947;57.722;12.012;2023-06-04T00:04:58;4.87;;;3.90;;
19599;SDS011;9947;57.722;12.012;2023-06-04T00:07:26;7.70;;;3.63;;
19599;SDS011;9947;57.722;12.012;2023-06-04T00:09:53;5.00;;;3.67;;
19599;SDS011;9947;57.722;12.012;2023-06-04T00:12:22;7.33;;;3.80;;
19599;SDS011;9947;57.722;12.012;2023-06-04T00:14:53;8.20;;;3.63;;
19599;SDS011;9947;57.722;12.012;2023-06-04T00:17:23;9.17;;;3.63;;
19599;SDS011;9947;57.722;12.012;2023-06-04T00:19:54;6.13;;;3.70;;
19599;SDS011;9947;57.722;12.012;2023-06-04T00:22:22;5.93;;;3.70;;
19599;SDS011;9947;57.722;12.012;2023-06-04T00:24:48;5.73;;;3.70;;
19599;SDS011;9947;57.722;12.012;2023-06-04T00:27:23;5.43;;;3.60;;
19599;SDS011;9947;57.722;12.012;2023-06-04T00:29:54;10.83;;;4.03;;
19599;SDS011;9947;57.722;12.012;2023-06-04T00:32:26;9.40;;;3.90;;
19599;SDS011;9947;57.722;12.012;2023-06-04T00:34:54;4.93;;;3.60;;
19599;SDS011;9947;57.722;12.012;2023-06-04T00:37:27;6.30;;;3.57;;
19599;SDS011;9947;57.722;12.012;2023-06-04T00:39:57;6.03;;;3.30;;
19599;SDS011;9947;57.722;12.012;2023-06-04T00:42:27;7.67;;;3.40;;
19599;SDS011;9947;57.722;12.012;2023-06-04T00:44:54;5.97;;;3.87;;
19599;SDS011;9947;57.722;12.012;2023-06-04T00:47:23;8.10;;;3.80;;
19599;SDS011;9947;57.722;12.012;2023-06-04T00:49:59;10.97;;;3.80;;
19599;SDS011;9947;57.722;12.012;2023-06-04T00:52:38;7.53;;;3.80;;
19599;SDS011;9947;57.722;12.012;2023-06-04T00:55:05;12.43;;;3.60;;
19599;SDS011;9947;57.722;12.012;2023-06-04T00:57:44;7.17;;;3.83;;
19599;SDS011;9947;57.722;12.012;2023-06-04T01:00:13;6.10;;;3.87;;
19599;SDS011;9947;57.722;12.012;2023-06-04T01:02:43;9.03;;;4.07;;
19599;SDS011;9947;57.722;12.012;2023-06-04T01:05:16;8.57;;;4.17;;
19599;SDS011;9947;57.722;12.012;2023-06-04T01:07:54;7.07;;;3.70;;
19599;SDS011;9947;57.722;12.012;2023-06-04T01:10:25;6.83;;;4.23;;
19599;SDS011;9947;57.722;12.012;2023-06-04T01:12:54;6.07;;;3.60;;
19599;SDS011;9947;57.722;12.012;2023-06-04T01:15:22;5.40;;;3.70;;
19599;SDS011;9947;57.722;12.012;2023-06-04T01:18:01;5.97;;;3.67;;
19599;SDS011;9947;57.722;12.012;2023-06-04T01:20:33;7.43;;;3.90;;
19599;SDS011;9947;57.722;12.012;2023-06-04T01:23:12;8.13;;;3.93;;
19599;SDS011;9947;57.722;12.012;2023-06-04T01:25:55;8.37;;;3.87;;
19599;SDS011;9947;57.722;12.012;2023-06-04T01:28:34;8.77;;;4.07;;
19599;SDS011;9947;57.722;12.012;2023-06-04T01:31:13;6.47;;;3.97;;
19599;SDS011;9947;57.722;12.012;2023-06-04T01:33:43;5.00;;;3.70;;
19599;SDS011;9947;57.722;12.012;2023-06-04T01:36:11;5.57;;;4.03;;
19599;SDS011;9947;57.722;12.012;2023-06-04T01:38:46;6.60;;;4.10;;
19599;SDS011;9947;57.722;12.012;2023-06-04T01:41:17;7.67;;;3.80;;
19599;SDS011;9947;57.722;12.012;2023-06-04T01:43:47;4.97;;;4.00;;
19599;SDS011;9947;57.722;12.012;2023-06-04T01:46:18;5.37;;;4.13;;
19599;SDS011;9947;57.722;12.012;2023-06-04T01:48:49;8.43;;;4.10;;
19599;SDS011;9947;57.722;12.012;2023-06-04T01:51:22;8.87;;;4.43;;
19599;SDS011;9947;57.722;12.012;2023-06-04T01:53:56;7.03;;;4.30;;
19599;SDS011;9947;57.722;12.012;2023-06-04T01:56:34;9.77;;;4.13;;
19599;SDS011;9947;57.722;12.012;2023-06-04T02:01:40;5.40;;;3.73;;
19599;SDS011;9947;57.722;12.012;2023-06-04T02:04:10;6.23;;;3.90;;
19599;SDS011;9947;57.722;12.012;2023-06-04T02:09:05;10.50;;;4.90;;
19599;SDS011;9947;57.722;12.012;2023-06-04T02:11:37;5.53;;;4.50;;
19599;SDS011;9947;57.722;12.012;2023-06-04T02:14:08;10.43;;;4.60;;
19599;SDS011;9947;57.722;12.012;2023-06-04T02:16:37;10.23;;;4.20;;
19599;SDS011;9947;57.722;12.012;2023-06-04T02:21:49;5.03;;;3.93;;
19599;SDS011;9947;57.722;12.012;2023-06-04T02:24:17;7.97;;;4.37;;
19599;SDS011;9947;57.722;12.012;2023-06-04T02:26:52;8.67;;;4.47;;
19599;SDS011;9947;57.722;12.012;2023-06-04T02:29:23;7.47;;;4.40;;
19599;SDS011;9947;57.722;12.012;2023-06-04T02:31:51;7.60;;;4.53;;
19599;SDS011;9947;57.722;12.012;2023-06-04T02:34:18;7.13;;;4.60;;
19599;SDS011;9947;57.722;12.012;2023-06-04T02:39:44;6.60;;;4.10;;
19599;SDS011;9947;57.722;12.012;2023-06-04T02:42:18;8.70;;;4.27;;
19599;SDS011;9947;57.722;12.012;2023-06-04T02:44:49;7.10;;;4.40;;
19599;SDS011;9947;57.722;12.012;2023-06-04T02:47:18;8.03;;;4.80;;
19599;SDS011;9947;57.722;12.012;2023-06-04T02:49:51;5.60;;;3.93;;
19599;SDS011;9947;57.722;12.012;2023-06-04T02:52:32;7.73;;;4.60;;
19599;SDS011;9947;57.722;12.012;2023-06-04T02:55:04;9.00;;;4.23;;
19599;SDS011;9947;57.722;12.012;2023-06-04T02:57:33;6.43;;;3.67;;
19599;SDS011;9947;57.722;12.012;2023-06-04T03:00:09;8.20;;;4.40;;
19599;SDS011;9947;57.722;12.012;2023-06-04T03:02:48;7.13;;;4.17;;
19599;SDS011;9947;57.722;12.012;2023-06-04T03:05:28;7.13;;;4.40;;
19599;SDS011;9947;57.722;12.012;2023-06-04T03:08:03;5.77;;;4.03;;
19599;SDS011;9947;57.722;12.012;2023-06-04T03:10:35;9.20;;;4.37;;
19599;SDS011;9947;57.722;12.012;2023-06-04T03:13:04;7.57;;;4.57;;
19599;SDS011;9947;57.722;12.012;2023-06-04T03:15:32;5.77;;;4.70;;
19599;SDS011;9947;57.722;12.012;2023-06-04T03:18:06;9.70;;;4.97;;
19599;SDS011;9947;57.722;12.012;2023-06-04T03:20:41;10.47;;;4.50;;
19599;SDS011;9947;57.722;12.012;2023-06-04T03:26:02;6.03;;;3.90;;
19599;SDS011;9947;57.722;12.012;2023-06-04T03:28:31;6.80;;;3.60;;
19599;SDS011;9947;57.722;12.012;2023-06-04T03:31:06;6.27;;;4.30;;
19599;SDS011;9947;57.722;12.012;2023-06-04T03:36:00;6.05;;;4.20;;
19599;SDS011;9947;57.722;12.012;2023-06-04T03:38:38;6.97;;;4.53;;
19599;SDS011;9947;57.722;12.012;2023-06-04T03:41:06;5.13;;;3.93;;
19599;SDS011;9947;57.722;12.012;2023-06-04T03:43:38;6.63;;;4.27;;
19599;SDS011;9947;57.722;12.012;2023-06-04T03:46:10;7.50;;;4.03;;
19599;SDS011;9947;57.722;12.012;2023-06-04T03:48:37;5.70;;;3.60;;
19599;SDS011;9947;57.722;12.012;2023-06-04T03:51:06;5.70;;;3.73;;
19599;SDS011;9947;57.722;12.012;2023-06-04T03:53:35;6.47;;;3.83;;
19599;SDS011;9947;57.722;12.012;2023-06-04T03:56:02;6.47;;;3.80;;
19599;SDS011;9947;57.722;12.012;2023-06-04T03:58:29;8.93;;;3.50;;
19599;SDS011;9947;57.722;12.012;2023-06-04T04:01:02;7.03;;;3.93;;
19599;SDS011;9947;57.722;12.012;2023-06-04T04:03:35;6.37;;;3.73;;
19599;SDS011;9947;57.722;12.012;2023-06-04T04:06:03;6.67;;;3.40;;
19599;SDS011;9947;57.722;12.012;2023-06-04T04:08:30;7.13;;;3.83;;
19599;SDS011;9947;57.722;12.012;2023-06-04T04:11:00;5.53;;;4.30;;
19599;SDS011;9947;57.722;12.012;2023-06-04T04:13:28;6.47;;;3.83;;
19599;SDS011;9947;57.722;12.012;2023-06-04T04:15:58;6.23;;;3.77;;
19599;SDS011;9947;57.722;12.012;2023-06-04T04:21:04;6.17;;;3.50;;
19599;SDS011;9947;57.722;12.012;2023-06-04T04:23:33;10.03;;;3.70;;
19599;SDS011;9947;57.722;12.012;2023-06-04T04:29:07;6.03;;;3.43;;
19599;SDS011;9947;57.722;12.012;2023-06-04T04:31:35;8.80;;;3.70;;
19599;SDS011;9947;57.722;12.012;2023-06-04T04:34:07;4.97;;;3.70;;
19599;SDS011;9947;57.722;12.012;2023-06-04T04:36:39;6.40;;;3.40;;
19599;SDS011;9947;57.722;12.012;2023-06-04T04:39:09;6.23;;;3.30;;
19599;SDS011;9947;57.722;12.012;2023-06-04T04:41:39;8.20;;;3.53;;
19599;SDS011;9947;57.722;12.012;2023-06-04T04:44:11;4.70;;;2.97;;
19599;SDS011;9947;57.722;12.012;2023-06-04T04:46:41;7.27;;;3.20;;
19599;SDS011;9947;57.722;12.012;2023-06-04T04:49:15;4.33;;;2.80;;
19599;SDS011;9947;57.722;12.012;2023-06-04T04:54:08;4.67;;;2.87;;
19599;SDS011;9947;57.722;12.012;2023-06-04T04:56:43;6.70;;;2.83;;
19599;SDS011;9947;57.722;12.012;2023-06-04T04:59:20;4.77;;;2.73;;
19599;SDS011;9947;57.722;12.012;2023-06-04T05:01:53;9.35;;;2.88;;
19599;SDS011;9947;57.722;12.012;2023-06-04T05:04:22;4.45;;;2.55;;
19599;SDS011;9947;57.722;12.012;2023-06-04T05:06:54;5.38;;;2.53;;
19599;SDS011;9947;57.722;12.012;2023-06-04T05:09:28;8.40;;;2.95;;
19599;SDS011;9947;57.722;12.012;2023-06-04T05:12:01;5.75;;;2.80;;
19599;SDS011;9947;57.722;12.012;2023-06-04T05:14:34;5.93;;;2.60;;
19599;SDS011;9947;57.722;12.012;2023-06-04T05:17:06;4.88;;;2.80;;
19599;SDS011;9947;57.722;12.012;2023-06-04T05:22:11;4.55;;;2.97;;
19599;SDS011;9947;57.722;12.012;2023-06-04T05:24:47;4.90;;;2.60;;
19599;SDS011;9947;57.722;12.012;2023-06-04T05:27:20;8.85;;;3.25;;
19599;SDS011;9947;57.722;12.012;2023-06-04T05:29:59;6.68;;;3.55;;
19599;SDS011;9947;57.722;12.012;2023-06-04T05:32:27;5.95;;;3.45;;
19599;SDS011;9947;57.722;12.012;2023-06-04T05:34:58;6.47;;;4.03;;
19599;SDS011;9947;57.722;12.012;2023-06-04T05:39:58;9.35;;;3.20;;
19599;SDS011;9947;57.722;12.012;2023-06-04T05:42:47;7.93;;;3.40;;
19599;SDS011;9947;57.722;12.012;2023-06-04T05:45:25;6.60;;;3.78;;
19599;SDS011;9947;57.722;12.012;2023-06-04T05:48:02;9.88;;;3.85;;
19599;SDS011;9947;57.722;12.012;2023-06-04T05:50:39;12.98;;;4.28;;
19599;SDS011;9947;57.722;12.012;2023-06-04T05:53:07;8.40;;;3.72;;
19599;SDS011;9947;57.722;12.012;2023-06-04T05:58:01;11.88;;;3.60;;
19599;SDS011;9947;57.722;12.012;2023-06-04T06:00:37;11.95;;;3.45;;
19599;SDS011;9947;57.722;12.012;2023-06-04T06:03:05;11.52;;;3.20;;
19599;SDS011;9947;57.722;12.012;2023-06-04T06:08:00;6.47;;;2.78;;
19599;SDS011;9947;57.722;12.012;2023-06-04T06:12:55;8.45;;;3.30;;
19599;SDS011;9947;57.722;12.012;2023-06-04T06:15:24;13.13;;;3.67;;
19599;SDS011;9947;57.722;12.012;2023-06-04T06:17:53;12.98;;;3.63;;
19599;SDS011;9947;57.722;12.012;2023-06-04T06:20:23;9.90;;;3.47;;
19599;SDS011;9947;57.722;12.012;2023-06-04T06:22:53;15.48;;;4.35;;
19599;SDS011;9947;57.722;12.012;2023-06-04T06:25:21;12.07;;;3.85;;
19599;SDS011;9947;57.722;12.012;2023-06-04T06:27:49;14.25;;;4.57;;
19599;SDS011;9947;57.722;12.012;2023-06-04T06:30:16;12.35;;;3.92;;
19599;SDS011;9947;57.722;12.012;2023-06-04T06:32:45;17.00;;;3.70;;
19599;SDS011;9947;57.722;12.012;2023-06-04T06:35:15;11.82;;;4.32;;
19599;SDS011;9947;57.722;12.012;2023-06-04T06:40:11;8.65;;;3.22;;
19599;SDS011;9947;57.722;12.012;2023-06-04T06:45:10;9.02;;;3.80;;
19599;SDS011;9947;57.722;12.012;2023-06-04T06:52:42;13.13;;;4.33;;
19599;SDS011;9947;57.722;12.012;2023-06-04T06:55:13;12.87;;;4.17;;
19599;SDS011;9947;57.722;12.012;2023-06-04T06:58:05;13.83;;;4.40;;
19599;SDS011;9947;57.722;12.012;2023-06-04T07:00:40;11.93;;;3.97;;
19599;SDS011;9947;57.722;12.012;2023-06-04T07:03:12;14.70;;;4.30;;
19599;SDS011;9947;57.722;12.012;2023-06-04T07:08:07;13.17;;;4.37;;
19599;SDS011;9947;57.722;12.012;2023-06-04T07:13:02;13.27;;;4.60;;
19599;SDS011;9947;57.722;12.012;2023-06-04T07:15:30;9.73;;;3.70;;
19599;SDS011;9947;57.722;12.012;2023-06-04T07:17:58;14.97;;;4.27;;
19599;SDS011;9947;57.722;12.012;2023-06-04T07:20:27;13.20;;;4.57;;
19599;SDS011;9947;57.722;12.012;2023-06-04T07:22:57;13.57;;;4.10;;
19599;SDS011;9947;57.722;12.012;2023-06-04T07:25:26;11.17;;;4.00;;
19599;SDS011;9947;57.722;12.012;2023-06-04T07:27:59;11.30;;;3.97;;
19599;SDS011;9947;57.722;12.012;2023-06-04T07:30:30;12.07;;;4.03;;
19599;SDS011;9947;57.722;12.012;2023-06-04T07:33:00;11.43;;;3.70;;
19599;SDS011;9947;57.722;12.012;2023-06-04T07:35:28;14.77;;;4.57;;
19599;SDS011;9947;57.722;12.012;2023-06-04T07:37:59;14.60;;;4.17;;
19599;SDS011;9947;57.722;12.012;2023-06-04T07:40:33;14.07;;;3.80;;
19599;SDS011;9947;57.722;12.012;2023-06-04T07:43:00;6.87;;;3.50;;
19599;SDS011;9947;57.722;12.012;2023-06-04T07:45:38;9.50;;;3.60;;
19599;SDS011;9947;57.722;12.012;2023-06-04T07:48:09;9.37;;;3.53;;
19599;SDS011;9947;57.722;12.012;2023-06-04T07:53:12;11.50;;;3.77;;
19599;SDS011;9947;57.722;12.012;2023-06-04T07:55:52;9.90;;;3.33;;
19599;SDS011;9947;57.722;12.012;2023-06-04T07:58:20;8.57;;;3.53;;
19599;SDS011;9947;57.722;12.012;2023-06-04T08:00:51;10.17;;;3.20;;
19599;SDS011;9947;57.722;12.012;2023-06-04T08:03:24;9.57;;;3.33;;
19599;SDS011;9947;57.722;12.012;2023-06-04T08:05:59;10.20;;;3.57;;
19599;SDS011;9947;57.722;12.012;2023-06-04T08:08:31;7.20;;;3.50;;
19599;SDS011;9947;57.722;12.012;2023-06-04T08:11:05;6.03;;;3.00;;
19599;SDS011;9947;57.722;12.012;2023-06-04T08:13:41;7.73;;;3.03;;
19599;SDS011;9947;57.722;12.012;2023-06-04T08:16:11;9.07;;;3.10;;
19599;SDS011;9947;57.722;12.012;2023-06-04T08:18:42;8.93;;;3.30;;
19599;SDS011;9947;57.722;12.012;2023-06-04T08:21:24;7.03;;;2.93;;
19599;SDS011;9947;57.722;12.012;2023-06-04T08:23:57;6.70;;;3.00;;
19599;SDS011;9947;57.722;12.012;2023-06-04T08:29:12;8.50;;;3.50;;
19599;SDS011;9947;57.722;12.012;2023-06-04T08:31:42;8.33;;;3.20;;
19599;SDS011;9947;57.722;12.012;2023-06-04T08:34:10;5.73;;;2.83;;
19599;SDS011;9947;57.722;12.012;2023-06-04T08:39:05;9.03;;;2.97;;
19599;SDS011;9947;57.722;12.012;2023-06-04T08:41:42;8.53;;;2.93;;
19599;SDS011;9947;57.722;12.012;2023-06-04T08:49:07;6.80;;;3.10;;
19599;SDS011;9947;57.722;12.012;2023-06-04T08:51:42;8.00;;;3.20;;
19599;SDS011;9947;57.722;12.012;2023-06-04T08:54:11;6.37;;;3.17;;
19599;SDS011;9947;57.722;12.012;2023-06-04T08:59:10;6.93;;;3.10;;
19599;SDS011;9947;57.722;12.012;2023-06-04T09:04:12;6.33;;;2.97;;
19599;SDS011;9947;57.722;12.012;2023-06-04T09:06:43;5.80;;;2.77;;
19599;SDS011;9947;57.722;12.012;2023-06-04T09:09:18;7.33;;;2.93;;
19599;SDS011;9947;57.722;12.012;2023-06-04T09:11:51;7.20;;;2.80;;
19599;SDS011;9947;57.722;12.012;2023-06-04T09:14:20;8.10;;;3.20;;
19599;SDS011;9947;57.722;12.012;2023-06-04T09:16:54;8.23;;;2.67;;
19599;SDS011;9947;57.722;12.012;2023-06-04T09:19:25;6.37;;;2.80;;
19599;SDS011;9947;57.722;12.012;2023-06-04T09:21:53;6.73;;;3.00;;
19599;SDS011;9947;57.722;12.012;2023-06-04T09:24:23;5.97;;;2.30;;
19599;SDS011;9947;57.722;12.012;2023-06-04T09:26:52;4.70;;;2.03;;
19599;SDS011;9947;57.722;12.012;2023-06-04T09:29:20;8.23;;;2.80;;
19599;SDS011;9947;57.722;12.012;2023-06-04T09:31:57;5.80;;;2.17;;
19599;SDS011;9947;57.722;12.012;2023-06-04T09:34:28;3.33;;;2.00;;
19599;SDS011;9947;57.722;12.012;2023-06-04T09:36:56;5.53;;;2.30;;
19599;SDS011;9947;57.722;12.012;2023-06-04T09:39:26;4.20;;;2.63;;
19599;SDS011;9947;57.722;12.012;2023-06-04T09:41:57;4.27;;;2.60;;
19599;SDS011;9947;57.722;12.012;2023-06-04T09:44:26;5.60;;;2.40;;
19599;SDS011;9947;57.722;12.012;2023-06-04T09:46:59;5.27;;;3.00;;
19599;SDS011;9947;57.722;12.012;2023-06-04T09:49:39;5.17;;;2.47;;
19599;SDS011;9947;57.722;12.012;2023-06-04T09:52:13;4.70;;;2.47;;
19599;SDS011;9947;57.722;12.012;2023-06-04T09:54:58;6.50;;;3.00;;
19599;SDS011;9947;57.722;12.012;2023-06-04T09:57:44;6.73;;;2.40;;
19599;SDS011;9947;57.722;12.012;2023-06-04T10:00:16;7.53;;;2.70;;
19599;SDS011;9947;57.722;12.012;2023-06-04T10:02:49;5.50;;;2.50;;
19599;SDS011;9947;57.722;12.012;2023-06-04T10:05:29;7.00;;;2.50;;
19599;SDS011;9947;57.722;12.012;2023-06-04T10:08:02;4.27;;;2.27;;
19599;SDS011;9947;57.722;12.012;2023-06-04T10:13:00;11.97;;;3.43;;
19599;SDS011;9947;57.722;12.012;2023-06-04T10:18:01;4.97;;;2.50;;
19599;SDS011;9947;57.722;12.012;2023-06-04T10:20:44;7.23;;;2.83;;
19599;SDS011;9947;57.722;12.012;2023-06-04T10:23:15;7.03;;;2.53;;
19599;SDS011;9947;57.722;12.012;2023-06-04T10:25:46;6.37;;;2.40;;
19599;SDS011;9947;57.722;12.012;2023-06-04T10:28:23;9.43;;;2.43;;
19599;SDS011;9947;57.722;12.012;2023-06-04T10:30:53;7.30;;;2.60;;
19599;SDS011;9947;57.722;12.012;2023-06-04T10:33:27;5.73;;;2.40;;
19599;SDS011;9947;57.722;12.012;2023-06-04T10:36:10;8.77;;;2.70;;
19599;SDS011;9947;57.722;12.012;2023-06-04T10:38:49;4.97;;;2.37;;
19599;SDS011;9947;57.722;12.012;2023-06-04T10:41:21;10.90;;;2.77;;
19599;SDS011;9947;57.722;12.012;2023-06-04T10:44:01;5.83;;;2.47;;
19599;SDS011;9947;57.722;12.012;2023-06-04T10:46:38;5.47;;;2.17;;
19599;SDS011;9947;57.722;12.012;2023-06-04T10:49:07;6.63;;;2.33;;
19599;SDS011;9947;57.722;12.012;2023-06-04T10:51:43;5.67;;;2.20;;
19599;SDS011;9947;57.722;12.012;2023-06-04T10:54:21;6.23;;;2.53;;
19599;SDS011;9947;57.722;12.012;2023-06-04T10:56:52;7.50;;;2.60;;
19599;SDS011;9947;57.722;12.012;2023-06-04T10:59:20;10.37;;;2.70;;
19599;SDS011;9947;57.722;12.012;2023-06-04T11:01:49;7.47;;;3.10;;
19599;SDS011;9947;57.722;12.012;2023-06-04T11:07:01;5.93;;;2.80;;
19599;SDS011;9947;57.722;12.012;2023-06-04T11:09:30;7.83;;;2.70;;
19599;SDS011;9947;57.722;12.012;2023-06-04T11:11:58;8.33;;;2.93;;
19599;SDS011;9947;57.722;12.012;2023-06-04T11:14:28;11.73;;;3.10;;
19599;SDS011;9947;57.722;12.012;2023-06-04T11:17:08;8.10;;;3.30;;
19599;SDS011;9947;57.722;12.012;2023-06-04T11:22:05;5.30;;;2.80;;
19599;SDS011;9947;57.722;12.012;2023-06-04T11:27:08;8.13;;;2.87;;
19599;SDS011;9947;57.722;12.012;2023-06-04T11:29:42;6.17;;;2.67;;
19599;SDS011;9947;57.722;12.012;2023-06-04T11:32:21;5.90;;;2.70;;
19599;SDS011;9947;57.722;12.012;2023-06-04T11:34:50;8.13;;;2.90;;
19599;SDS011;9947;57.722;12.012;2023-06-04T11:37:31;7.00;;;3.37;;
19599;SDS011;9947;57.722;12.012;2023-06-04T11:40:14;11.20;;;3.40;;
19599;SDS011;9947;57.722;12.012;2023-06-04T11:45:21;7.60;;;2.85;;
19599;SDS011;9947;57.722;12.012;2023-06-04T11:50:20;10.13;;;2.67;;
19599;SDS011;9947;57.722;12.012;2023-06-04T11:52:51;9.83;;;3.00;;
19599;SDS011;9947;57.722;12.012;2023-06-04T11:55:20;6.97;;;2.80;;
19599;SDS011;9947;57.722;12.012;2023-06-04T11:57:51;14.40;;;3.43;;
19599;SDS011;9947;57.722;12.012;2023-06-04T12:00:20;9.30;;;2.73;;
19599;SDS011;9947;57.722;12.012;2023-06-04T12:02:48;6.70;;;2.63;;
19599;SDS011;9947;57.722;12.012;2023-06-04T12:05:18;7.40;;;2.90;;
19599;SDS011;9947;57.722;12.012;2023-06-04T12:07:48;9.57;;;2.90;;
19599;SDS011;9947;57.722;12.012;2023-06-04T12:10:18;9.30;;;2.90;;
19599;SDS011;9947;57.722;12.012;2023-06-04T12:15:32;10.57;;;3.20;;
19599;SDS011;9947;57.722;12.012;2023-06-04T12:18:02;7.03;;;3.10;;
19599;SDS011;9947;57.722;12.012;2023-06-04T12:20:32;7.80;;;3.10;;
19599;SDS011;9947;57.722;12.012;2023-06-04T12:23:03;9.30;;;2.60;;
19599;SDS011;9947;57.722;12.012;2023-06-04T12:25:41;4.07;;;2.53;;
19599;SDS011;9947;57.722;12.012;2023-06-04T12:28:16;10.07;;;2.63;;
19599;SDS011;9947;57.722;12.012;2023-06-04T12:30:55;7.20;;;3.10;;
19599;SDS011;9947;57.722;12.012;2023-06-04T12:33:24;5.53;;;2.67;;
19599;SDS011;9947;57.722;12.012;2023-06-04T12:35:52;11.33;;;3.23;;
19599;SDS011;9947;57.722;12.012;2023-06-04T12:38:21;6.97;;;3.13;;
19599;SDS011;9947;57.722;12.012;2023-06-04T12:41:00;14.60;;;3.60;;
19599;SDS011;9947;57.722;12.012;2023-06-04T12:48:23;9.80;;;3.23;;
19599;SDS011;9947;57.722;12.012;2023-06-04T12:50:53;11.03;;;3.83;;
19599;SDS011;9947;57.722;12.012;2023-06-04T12:53:21;9.77;;;3.07;;
19599;SDS011;9947;57.722;12.012;2023-06-04T12:55:51;9.67;;;3.20;;
19599;SDS011;9947;57.722;12.012;2023-06-04T12:58:26;6.10;;;2.87;;
19599;SDS011;9947;57.722;12.012;2023-06-04T13:00:58;10.77;;;3.10;;
19599;SDS011;9947;57.722;12.012;2023-06-04T13:06:23;12.60;;;2.93;;
19599;SDS011;9947;57.722;12.012;2023-06-04T13:08:52;7.87;;;2.83;;
19599;SDS011;9947;57.722;12.012;2023-06-04T13:11:27;6.33;;;2.60;;
19599;SDS011;9947;57.722;12.012;2023-06-04T13:13:58;9.60;;;2.80;;
19599;SDS011;9947;57.722;12.012;2023-06-04T13:16:31;7.43;;;2.90;;
19599;SDS011;9947;57.722;12.012;2023-06-04T13:19:01;7.83;;;2.80;;
19599;SDS011;9947;57.722;12.012;2023-06-04T13:21:31;8.33;;;2.90;;
19599;SDS011;9947;57.722;12.012;2023-06-04T13:23:59;6.63;;;2.50;;
19599;SDS011;9947;57.722;12.012;2023-06-04T13:26:36;8.20;;;2.70;;
19599;SDS011;9947;57.722;12.012;2023-06-04T13:29:07;5.60;;;2.67;;
19599;SDS011;9947;57.722;12.012;2023-06-04T13:31:45;7.03;;;2.90;;
19599;SDS011;9947;57.722;12.012;2023-06-04T13:34:12;3.63;;;2.60;;
19599;SDS011;9947;57.722;12.012;2023-06-04T13:36:45;7.77;;;2.43;;
19599;SDS011;9947;57.722;12.012;2023-06-04T13:39:13;6.87;;;2.40;;
19599;SDS011;9947;57.722;12.012;2023-06-04T13:41:42;6.23;;;2.50;;
19599;SDS011;9947;57.722;12.012;2023-06-04T13:44:12;6.70;;;2.40;;
19599;SDS011;9947;57.722;12.012;2023-06-04T13:46:44;5.77;;;2.33;;
19599;SDS011;9947;57.722;12.012;2023-06-04T13:49:12;6.83;;;2.33;;
19599;SDS011;9947;57.722;12.012;2023-06-04T13:54:08;7.47;;;3.07;;
19599;SDS011;9947;57.722;12.012;2023-06-04T13:59:01;6.80;;;2.60;;
19599;SDS011;9947;57.722;12.012;2023-06-04T14:01:29;6.13;;;2.30;;
19599;SDS011;9947;57.722;12.012;2023-06-04T14:03:58;5.93;;;2.60;;
19599;SDS011;9947;57.722;12.012;2023-06-04T14:08:58;6.83;;;2.50;;
19599;SDS011;9947;57.722;12.012;2023-06-04T14:11:34;7.13;;;2.20;;
19599;SDS011;9947;57.722;12.012;2023-06-04T14:14:06;4.73;;;2.23;;
19599;SDS011;9947;57.722;12.012;2023-06-04T14:18:59;3.67;;;2.23;;
19599;SDS011;9947;57.722;12.012;2023-06-04T14:21:30;4.53;;;2.17;;
19599;SDS011;9947;57.722;12.012;2023-06-04T14:24:03;3.70;;;2.30;;
19599;SDS011;9947;57.722;12.012;2023-06-04T14:29:08;4.53;;;2.13;;
19599;SDS011;9947;57.722;12.012;2023-06-04T14:34:02;3.60;;;2.20;;
19599;SDS011;9947;57.722;12.012;2023-06-04T14:36:40;4.03;;;2.00;;
19599;SDS011;9947;57.722;12.012;2023-06-04T14:39:15;4.73;;;2.13;;
19599;SDS011;9947;57.722;12.012;2023-06-04T14:41:44;4.33;;;2.37;;
19599;SDS011;9947;57.722;12.012;2023-06-04T14:44:16;6.33;;;2.30;;
19599;SDS011;9947;57.722;12.012;2023-06-04T14:46:45;6.83;;;2.20;;
19599;SDS011;9947;57.722;12.012;2023-06-04T14:49:17;3.90;;;2.20;;
19599;SDS011;9947;57.722;12.012;2023-06-04T14:51:45;3.10;;;2.07;;
19599;SDS011;9947;57.722;12.012;2023-06-04T14:54:16;3.33;;;2.00;;
19599;SDS011;9947;57.722;12.012;2023-06-04T14:56:44;4.13;;;2.10;;
19599;SDS011;9947;57.722;12.012;2023-06-04T14:59:14;3.30;;;1.93;;
19599;SDS011;9947;57.722;12.012;2023-06-04T15:01:52;4.50;;;2.40;;
19599;SDS011;9947;57.722;12.012;2023-06-04T15:04:21;4.47;;;2.40;;
19599;SDS011;9947;57.722;12.012;2023-06-04T15:06:51;4.27;;;2.20;;
19599;SDS011;9947;57.722;12.012;2023-06-04T15:09:21;6.77;;;2.40;;
19599;SDS011;9947;57.722;12.012;2023-06-04T15:11:58;3.07;;;2.10;;
19599;SDS011;9947;57.722;12.012;2023-06-04T15:14:28;5.53;;;2.10;;
19599;SDS011;9947;57.722;12.012;2023-06-04T15:16:58;2.80;;;1.90;;
19599;SDS011;9947;57.722;12.012;2023-06-04T15:19:27;3.97;;;2.23;;
19599;SDS011;9947;57.722;12.012;2023-06-04T15:21:57;5.73;;;2.00;;
19599;SDS011;9947;57.722;12.012;2023-06-04T15:24:38;4.50;;;2.03;;
19599;SDS011;9947;57.722;12.012;2023-06-04T15:27:10;2.37;;;2.10;;
19599;SDS011;9947;57.722;12.012;2023-06-04T15:32:15;6.33;;;3.03;;
19599;SDS011;9947;57.722;12.012;2023-06-04T15:34:43;6.13;;;2.20;;
19599;SDS011;9947;57.722;12.012;2023-06-04T15:37:13;6.57;;;2.10;;
19599;SDS011;9947;57.722;12.012;2023-06-04T15:39:46;4.80;;;2.07;;
19599;SDS011;9947;57.722;12.012;2023-06-04T15:42:19;3.80;;;2.00;;
19599;SDS011;9947;57.722;12.012;2023-06-04T15:44:50;7.70;;;2.10;;
19599;SDS011;9947;57.722;12.012;2023-06-04T15:47:30;1.90;;;1.70;;
19599;SDS011;9947;57.722;12.012;2023-06-04T15:52:49;4.70;;;2.07;;
19599;SDS011;9947;57.722;12.012;2023-06-04T15:55:25;3.80;;;2.17;;
19599;SDS011;9947;57.722;12.012;2023-06-04T15:57:59;3.63;;;2.00;;
19599;SDS011;9947;57.722;12.012;2023-06-04T16:00:26;4.53;;;1.90;;
19599;SDS011;9947;57.722;12.012;2023-06-04T16:05:26;4.70;;;2.00;;
19599;SDS011;9947;57.722;12.012;2023-06-04T16:07:55;3.63;;;1.80;;
19599;SDS011;9947;57.722;12.012;2023-06-04T16:13:13;3.43;;;1.70;;
19599;SDS011;9947;57.722;12.012;2023-06-04T16:18:20;2.13;;;1.80;;
19599;SDS011;9947;57.722;12.012;2023-06-04T16:20:54;2.37;;;1.90;;
19599;SDS011;9947;57.722;12.012;2023-06-04T16:23:25;3.27;;;2.10;;
19599;SDS011;9947;57.722;12.012;2023-06-04T16:25:56;2.43;;;1.70;;
19599;SDS011;9947;57.722;12.012;2023-06-04T16:28:25;5.10;;;2.20;;
19599;SDS011;9947;57.722;12.012;2023-06-04T16:30:55;4.90;;;2.00;;
19599;SDS011;9947;57.722;12.012;2023-06-04T16:36:06;3.07;;;1.73;;
19599;SDS011;9947;57.722;12.012;2023-06-04T16:41:00;2.70;;;1.60;;
19599;SDS011;9947;57.722;12.012;2023-06-04T16:46:02;3.07;;;2.03;;
19599;SDS011;9947;57.722;12.012;2023-06-04T16:51:01;4.10;;;2.00;;
19599;SDS011;9947;57.722;12.012;2023-06-04T16:53:39;3.20;;;1.90;;
19599;SDS011;9947;57.722;12.012;2023-06-04T16:56:07;3.03;;;1.83;;
19599;SDS011;9947;57.722;12.012;2023-06-04T16:58:42;5.53;;;1.97;;
19599;SDS011;9947;57.722;12.012;2023-06-04T17:01:09;2.23;;;1.80;;
19599;SDS011;9947;57.722;12.012;2023-06-04T17:03:45;2.23;;;1.87;;
19599;SDS011;9947;57.722;12.012;2023-06-04T17:06:14;3.77;;;1.90;;
19599;SDS011;9947;57.722;12.012;2023-06-04T17:11:08;4.03;;;2.00;;
19599;SDS011;9947;57.722;12.012;2023-06-04T17:16:04;3.10;;;1.77;;
19599;SDS011;9947;57.722;12.012;2023-06-04T17:20:58;2.00;;;1.80;;
19599;SDS011;9947;57.722;12.012;2023-06-04T17:23:28;4.93;;;2.07;;
19599;SDS011;9947;57.722;12.012;2023-06-04T17:25:58;2.93;;;1.60;;
19599;SDS011;9947;57.722;12.012;2023-06-04T17:28:30;2.70;;;1.60;;
19599;SDS011;9947;57.722;12.012;2023-06-04T17:30:59;2.03;;;1.87;;
19599;SDS011;9947;57.722;12.012;2023-06-04T17:33:40;2.57;;;1.90;;